Shickshinny, Pennsylvania
Current Conditions -  °F | °C
As of 2:35 PM on Tuesday 21 Oct 2014 (Local Time) from KHZL Reporting Station
Overcast Overcast  
Wind Chill: 54°   Ceiling: 2900
Heat Index: 54°   Visibility: 10mi
Dew Point: 46°   Wind: 7mph
Humidity: 77%   Direction: 310°NW
Pressure: 29.86"   Gusts: NA
Location:  41.15°N, 76.15°W
Report Text: KHZL 211835Z AUTO 31006KT 10SM SCT020 BKN029 OVC042 12/08 A2986 RMK AO2
Loading
Personal Weather Stations






























Interactive Weather Map
Tropical Storm Tracking
New forecast layout! Learn more

10-Day Weather Forecast

Advertisements
Track Severe Weather on mobile